sensor_id;sensor_type;location;lat;lon;timestamp;P1;durP1;ratioP1;P2;durP2;ratioP2
24277;SDS011;12394;42.692;23.314;2023-08-30T00:00:54;7.17;;;4.60;;
24277;SDS011;12394;42.692;23.314;2023-08-30T00:03:19;5.17;;;4.40;;
24277;SDS011;12394;42.692;23.314;2023-08-30T00:05:45;6.47;;;4.40;;
24277;SDS011;12394;42.692;23.314;2023-08-30T00:08:10;8.50;;;4.13;;
24277;SDS011;12394;42.692;23.314;2023-08-30T00:10:36;4.33;;;3.93;;
24277;SDS011;12394;42.692;23.314;2023-08-30T00:13:03;4.97;;;4.27;;
24277;SDS011;12394;42.692;23.314;2023-08-30T00:15:28;4.80;;;4.00;;
24277;SDS011;12394;42.692;23.314;2023-08-30T00:17:54;6.50;;;3.80;;
24277;SDS011;12394;42.692;23.314;2023-08-30T00:20:19;6.10;;;3.60;;
24277;SDS011;12394;42.692;23.314;2023-08-30T00:22:46;6.50;;;4.17;;
24277;SDS011;12394;42.692;23.314;2023-08-30T00:25:13;6.30;;;4.70;;
24277;SDS011;12394;42.692;23.314;2023-08-30T00:27:39;6.70;;;3.87;;
24277;SDS011;12394;42.692;23.314;2023-08-30T00:30:04;5.50;;;3.83;;
24277;SDS011;12394;42.692;23.314;2023-08-30T00:32:30;5.57;;;4.03;;
24277;SDS011;12394;42.692;23.314;2023-08-30T00:34:56;5.17;;;3.80;;
24277;SDS011;12394;42.692;23.314;2023-08-30T00:37:21;6.20;;;3.63;;
24277;SDS011;12394;42.692;23.314;2023-08-30T00:39:46;4.13;;;3.63;;
24277;SDS011;12394;42.692;23.314;2023-08-30T00:42:12;5.07;;;3.67;;
24277;SDS011;12394;42.692;23.314;2023-08-30T00:44:37;4.27;;;3.70;;
24277;SDS011;12394;42.692;23.314;2023-08-30T00:47:03;6.33;;;4.10;;
24277;SDS011;12394;42.692;23.314;2023-08-30T00:49:29;4.80;;;3.70;;
24277;SDS011;12394;42.692;23.314;2023-08-30T00:51:56;3.77;;;3.03;;
24277;SDS011;12394;42.692;23.314;2023-08-30T00:54:22;6.63;;;3.73;;
24277;SDS011;12394;42.692;23.314;2023-08-30T00:56:48;4.47;;;3.77;;
24277;SDS011;12394;42.692;23.314;2023-08-30T00:59:15;5.37;;;3.13;;
24277;SDS011;12394;42.692;23.314;2023-08-30T01:01:41;5.77;;;3.67;;
24277;SDS011;12394;42.692;23.314;2023-08-30T01:04:06;3.73;;;3.27;;
24277;SDS011;12394;42.692;23.314;2023-08-30T01:06:32;6.90;;;3.27;;
24277;SDS011;12394;42.692;23.314;2023-08-30T01:09:00;5.17;;;3.53;;
24277;SDS011;12394;42.692;23.314;2023-08-30T01:14:18;3.87;;;3.40;;
24277;SDS011;12394;42.692;23.314;2023-08-30T01:16:48;3.70;;;2.83;;
24277;SDS011;12394;42.692;23.314;2023-08-30T01:27:51;5.73;;;3.60;;
24277;SDS011;12394;42.692;23.314;2023-08-30T01:30:18;4.80;;;3.53;;
24277;SDS011;12394;42.692;23.314;2023-08-30T01:32:45;4.60;;;3.20;;
24277;SDS011;12394;42.692;23.314;2023-08-30T01:35:11;5.87;;;3.30;;
24277;SDS011;12394;42.692;23.314;2023-08-30T01:37:42;4.90;;;3.10;;
24277;SDS011;12394;42.692;23.314;2023-08-30T01:40:10;3.27;;;2.97;;
24277;SDS011;12394;42.692;23.314;2023-08-30T01:42:37;5.13;;;3.67;;
24277;SDS011;12394;42.692;23.314;2023-08-30T01:45:04;4.07;;;3.33;;
24277;SDS011;12394;42.692;23.314;2023-08-30T01:47:33;4.53;;;3.23;;
24277;SDS011;12394;42.692;23.314;2023-08-30T01:50:01;7.93;;;3.67;;
24277;SDS011;12394;42.692;23.314;2023-08-30T01:52:28;4.90;;;3.40;;
24277;SDS011;12394;42.692;23.314;2023-08-30T01:54:55;5.00;;;3.40;;
24277;SDS011;12394;42.692;23.314;2023-08-30T01:57:22;5.63;;;3.97;;
24277;SDS011;12394;42.692;23.314;2023-08-30T01:59:47;4.23;;;3.43;;
24277;SDS011;12394;42.692;23.314;2023-08-30T02:02:13;6.87;;;3.77;;
24277;SDS011;12394;42.692;23.314;2023-08-30T02:04:39;5.40;;;4.33;;
24277;SDS011;12394;42.692;23.314;2023-08-30T02:07:06;6.40;;;3.27;;
24277;SDS011;12394;42.692;23.314;2023-08-30T02:09:40;5.47;;;3.33;;
24277;SDS011;12394;42.692;23.314;2023-08-30T02:12:13;5.97;;;3.80;;
24277;SDS011;12394;42.692;23.314;2023-08-30T02:14:41;4.23;;;3.30;;
24277;SDS011;12394;42.692;23.314;2023-08-30T02:17:09;6.73;;;3.60;;
24277;SDS011;12394;42.692;23.314;2023-08-30T02:19:37;5.83;;;3.57;;
24277;SDS011;12394;42.692;23.314;2023-08-30T02:22:02;4.00;;;3.47;;
24277;SDS011;12394;42.692;23.314;2023-08-30T02:24:28;7.00;;;3.93;;
24277;SDS011;12394;42.692;23.314;2023-08-30T02:26:53;4.37;;;3.40;;
24277;SDS011;12394;42.692;23.314;2023-08-30T02:29:19;6.07;;;4.43;;
24277;SDS011;12394;42.692;23.314;2023-08-30T02:31:44;8.37;;;3.63;;
24277;SDS011;12394;42.692;23.314;2023-08-30T02:34:10;5.27;;;3.63;;
24277;SDS011;12394;42.692;23.314;2023-08-30T02:36:35;5.83;;;3.70;;
24277;SDS011;12394;42.692;23.314;2023-08-30T02:39:00;4.63;;;3.50;;
24277;SDS011;12394;42.692;23.314;2023-08-30T02:41:26;6.93;;;3.40;;
24277;SDS011;12394;42.692;23.314;2023-08-30T02:43:51;5.17;;;3.17;;
24277;SDS011;12394;42.692;23.314;2023-08-30T02:46:16;7.27;;;3.80;;
24277;SDS011;12394;42.692;23.314;2023-08-30T02:48:42;5.13;;;3.57;;
24277;SDS011;12394;42.692;23.314;2023-08-30T02:51:07;4.87;;;3.73;;
24277;SDS011;12394;42.692;23.314;2023-08-30T02:53:33;5.80;;;4.07;;
24277;SDS011;12394;42.692;23.314;2023-08-30T02:55:58;6.30;;;3.77;;
24277;SDS011;12394;42.692;23.314;2023-08-30T02:58:24;5.53;;;4.10;;
24277;SDS011;12394;42.692;23.314;2023-08-30T03:00:49;6.83;;;3.43;;
24277;SDS011;12394;42.692;23.314;2023-08-30T03:03:14;4.63;;;3.07;;
24277;SDS011;12394;42.692;23.314;2023-08-30T03:05:40;7.17;;;3.93;;
24277;SDS011;12394;42.692;23.314;2023-08-30T03:08:05;4.70;;;3.67;;
24277;SDS011;12394;42.692;23.314;2023-08-30T03:10:31;8.40;;;4.27;;
24277;SDS011;12394;42.692;23.314;2023-08-30T03:12:57;5.20;;;3.73;;
24277;SDS011;12394;42.692;23.314;2023-08-30T03:15:22;5.43;;;3.57;;
24277;SDS011;12394;42.692;23.314;2023-08-30T03:17:48;5.13;;;3.57;;
24277;SDS011;12394;42.692;23.314;2023-08-30T03:20:13;6.67;;;3.73;;
24277;SDS011;12394;42.692;23.314;2023-08-30T03:22:39;4.40;;;3.47;;
24277;SDS011;12394;42.692;23.314;2023-08-30T03:25:04;4.03;;;3.00;;
24277;SDS011;12394;42.692;23.314;2023-08-30T03:27:32;5.07;;;3.17;;
24277;SDS011;12394;42.692;23.314;2023-08-30T03:29:57;5.73;;;3.33;;
24277;SDS011;12394;42.692;23.314;2023-08-30T03:32:23;5.00;;;3.20;;
24277;SDS011;12394;42.692;23.314;2023-08-30T03:34:48;9.73;;;3.50;;
24277;SDS011;12394;42.692;23.314;2023-08-30T03:37:14;4.33;;;3.93;;
24277;SDS011;12394;42.692;23.314;2023-08-30T03:39:40;3.80;;;2.90;;
24277;SDS011;12394;42.692;23.314;2023-08-30T03:42:06;6.50;;;3.13;;
24277;SDS011;12394;42.692;23.314;2023-08-30T03:44:32;6.07;;;3.53;;
24277;SDS011;12394;42.692;23.314;2023-08-30T03:46:57;7.47;;;3.50;;
24277;SDS011;12394;42.692;23.314;2023-08-30T03:49:23;3.60;;;3.30;;
24277;SDS011;12394;42.692;23.314;2023-08-30T03:51:48;4.90;;;3.60;;
24277;SDS011;12394;42.692;23.314;2023-08-30T03:54:14;6.73;;;3.37;;
24277;SDS011;12394;42.692;23.314;2023-08-30T03:56:44;4.37;;;3.37;;
24277;SDS011;12394;42.692;23.314;2023-08-30T03:59:10;6.63;;;3.17;;
24277;SDS011;12394;42.692;23.314;2023-08-30T04:01:36;4.37;;;3.23;;
24277;SDS011;12394;42.692;23.314;2023-08-30T04:04:02;9.17;;;3.63;;
24277;SDS011;12394;42.692;23.314;2023-08-30T04:06:28;4.20;;;3.13;;
24277;SDS011;12394;42.692;23.314;2023-08-30T04:08:53;4.30;;;2.93;;
24277;SDS011;12394;42.692;23.314;2023-08-30T04:11:18;5.63;;;3.30;;
24277;SDS011;12394;42.692;23.314;2023-08-30T04:13:44;6.00;;;4.30;;
24277;SDS011;12394;42.692;23.314;2023-08-30T04:16:10;5.57;;;3.77;;
24277;SDS011;12394;42.692;23.314;2023-08-30T04:18:35;5.17;;;3.90;;
24277;SDS011;12394;42.692;23.314;2023-08-30T04:21:01;6.10;;;3.23;;
24277;SDS011;12394;42.692;23.314;2023-08-30T04:23:27;6.67;;;3.50;;
24277;SDS011;12394;42.692;23.314;2023-08-30T04:25:54;5.77;;;3.30;;
24277;SDS011;12394;42.692;23.314;2023-08-30T04:28:20;6.70;;;3.70;;
24277;SDS011;12394;42.692;23.314;2023-08-30T04:30:46;5.50;;;3.20;;
24277;SDS011;12394;42.692;23.314;2023-08-30T04:33:11;7.13;;;3.20;;
24277;SDS011;12394;42.692;23.314;2023-08-30T04:35:37;5.13;;;3.10;;
24277;SDS011;12394;42.692;23.314;2023-08-30T04:38:02;5.50;;;4.27;;
24277;SDS011;12394;42.692;23.314;2023-08-30T04:40:28;7.30;;;5.10;;
24277;SDS011;12394;42.692;23.314;2023-08-30T04:42:55;11.83;;;3.97;;
24277;SDS011;12394;42.692;23.314;2023-08-30T04:45:21;4.87;;;3.37;;
24277;SDS011;12394;42.692;23.314;2023-08-30T04:47:46;7.67;;;3.70;;
24277;SDS011;12394;42.692;23.314;2023-08-30T04:50:13;7.53;;;3.37;;
24277;SDS011;12394;42.692;23.314;2023-08-30T04:52:38;4.47;;;2.97;;
24277;SDS011;12394;42.692;23.314;2023-08-30T04:55:04;6.03;;;2.63;;
24277;SDS011;12394;42.692;23.314;2023-08-30T04:57:29;5.13;;;2.80;;
24277;SDS011;12394;42.692;23.314;2023-08-30T04:59:55;4.77;;;2.73;;
24277;SDS011;12394;42.692;23.314;2023-08-30T05:02:20;7.80;;;2.87;;
24277;SDS011;12394;42.692;23.314;2023-08-30T05:04:46;3.00;;;2.23;;
24277;SDS011;12394;42.692;23.314;2023-08-30T05:07:11;2.50;;;2.20;;
24277;SDS011;12394;42.692;23.314;2023-08-30T05:09:36;5.27;;;2.40;;
24277;SDS011;12394;42.692;23.314;2023-08-30T05:12:02;4.63;;;2.57;;
24277;SDS011;12394;42.692;23.314;2023-08-30T05:14:28;3.23;;;2.67;;
24277;SDS011;12394;42.692;23.314;2023-08-30T05:16:53;3.97;;;2.63;;
24277;SDS011;12394;42.692;23.314;2023-08-30T05:19:19;2.77;;;2.30;;
24277;SDS011;12394;42.692;23.314;2023-08-30T05:21:44;6.90;;;2.17;;
24277;SDS011;12394;42.692;23.314;2023-08-30T05:24:10;4.57;;;2.17;;
24277;SDS011;12394;42.692;23.314;2023-08-30T05:26:36;4.50;;;2.20;;
24277;SDS011;12394;42.692;23.314;2023-08-30T05:29:02;7.17;;;2.40;;
24277;SDS011;12394;42.692;23.314;2023-08-30T05:31:28;2.77;;;2.27;;
24277;SDS011;12394;42.692;23.314;2023-08-30T05:33:53;15.30;;;4.87;;
24277;SDS011;12394;42.692;23.314;2023-08-30T05:36:19;2.23;;;1.97;;
24277;SDS011;12394;42.692;23.314;2023-08-30T05:38:44;5.43;;;2.30;;
24277;SDS011;12394;42.692;23.314;2023-08-30T05:41:09;4.93;;;2.57;;
24277;SDS011;12394;42.692;23.314;2023-08-30T05:43:35;4.00;;;2.37;;
24277;SDS011;12394;42.692;23.314;2023-08-30T05:46:00;3.70;;;2.20;;
24277;SDS011;12394;42.692;23.314;2023-08-30T05:48:27;3.77;;;2.70;;
24277;SDS011;12394;42.692;23.314;2023-08-30T05:50:55;4.07;;;2.50;;
24277;SDS011;12394;42.692;23.314;2023-08-30T05:53:21;2.77;;;2.40;;
24277;SDS011;12394;42.692;23.314;2023-08-30T05:55:47;3.30;;;2.40;;
24277;SDS011;12394;42.692;23.314;2023-08-30T05:58:13;4.27;;;2.70;;
24277;SDS011;12394;42.692;23.314;2023-08-30T06:00:40;4.00;;;2.40;;
24277;SDS011;12394;42.692;23.314;2023-08-30T06:03:05;3.47;;;2.47;;
24277;SDS011;12394;42.692;23.314;2023-08-30T06:05:31;2.50;;;2.07;;
24277;SDS011;12394;42.692;23.314;2023-08-30T06:07:56;3.10;;;2.27;;
24277;SDS011;12394;42.692;23.314;2023-08-30T06:10:23;3.33;;;2.57;;
24277;SDS011;12394;42.692;23.314;2023-08-30T06:12:48;4.80;;;2.40;;
24277;SDS011;12394;42.692;23.314;2023-08-30T06:15:14;4.07;;;2.83;;
24277;SDS011;12394;42.692;23.314;2023-08-30T06:17:39;2.93;;;2.00;;
24277;SDS011;12394;42.692;23.314;2023-08-30T06:20:05;3.83;;;2.53;;
24277;SDS011;12394;42.692;23.314;2023-08-30T06:22:31;4.97;;;2.63;;
24277;SDS011;12394;42.692;23.314;2023-08-30T06:24:56;3.03;;;2.37;;
24277;SDS011;12394;42.692;23.314;2023-08-30T06:27:23;3.10;;;2.50;;
24277;SDS011;12394;42.692;23.314;2023-08-30T06:29:49;3.03;;;2.33;;
24277;SDS011;12394;42.692;23.314;2023-08-30T06:32:15;3.83;;;2.53;;
24277;SDS011;12394;42.692;23.314;2023-08-30T06:34:42;4.43;;;2.60;;
24277;SDS011;12394;42.692;23.314;2023-08-30T06:37:07;5.63;;;2.37;;
24277;SDS011;12394;42.692;23.314;2023-08-30T06:39:33;3.50;;;2.30;;
24277;SDS011;12394;42.692;23.314;2023-08-30T06:42:00;2.80;;;2.27;;
24277;SDS011;12394;42.692;23.314;2023-08-30T06:44:25;2.90;;;2.43;;
24277;SDS011;12394;42.692;23.314;2023-08-30T06:46:51;6.10;;;2.80;;
24277;SDS011;12394;42.692;23.314;2023-08-30T06:49:16;3.27;;;2.67;;
24277;SDS011;12394;42.692;23.314;2023-08-30T06:51:42;2.73;;;1.83;;
24277;SDS011;12394;42.692;23.314;2023-08-30T06:54:07;4.70;;;1.80;;
24277;SDS011;12394;42.692;23.314;2023-08-30T06:56:36;3.27;;;2.17;;
24277;SDS011;12394;42.692;23.314;2023-08-30T06:59:01;3.40;;;2.30;;
24277;SDS011;12394;42.692;23.314;2023-08-30T07:01:27;3.43;;;1.83;;
24277;SDS011;12394;42.692;23.314;2023-08-30T07:03:55;3.30;;;2.23;;
24277;SDS011;12394;42.692;23.314;2023-08-30T07:06:21;5.03;;;2.70;;
24277;SDS011;12394;42.692;23.314;2023-08-30T07:08:46;2.53;;;2.20;;
24277;SDS011;12394;42.692;23.314;2023-08-30T07:11:12;5.63;;;2.90;;
24277;SDS011;12394;42.692;23.314;2023-08-30T07:13:37;3.43;;;2.23;;
24277;SDS011;12394;42.692;23.314;2023-08-30T07:16:03;3.70;;;2.60;;
24277;SDS011;12394;42.692;23.314;2023-08-30T07:18:28;6.63;;;3.13;;
24277;SDS011;12394;42.692;23.314;2023-08-30T07:20:54;4.77;;;2.37;;
24277;SDS011;12394;42.692;23.314;2023-08-30T07:23:19;3.43;;;2.20;;
24277;SDS011;12394;42.692;23.314;2023-08-30T07:25:45;6.97;;;2.97;;
24277;SDS011;12394;42.692;23.314;2023-08-30T07:28:10;4.60;;;2.90;;
24277;SDS011;12394;42.692;23.314;2023-08-30T07:30:36;4.60;;;2.63;;
24277;SDS011;12394;42.692;23.314;2023-08-30T07:33:02;5.80;;;3.43;;
24277;SDS011;12394;42.692;23.314;2023-08-30T07:35:29;4.20;;;3.30;;
24277;SDS011;12394;42.692;23.314;2023-08-30T07:37:58;4.30;;;2.60;;
24277;SDS011;12394;42.692;23.314;2023-08-30T07:40:23;3.00;;;2.27;;
24277;SDS011;12394;42.692;23.314;2023-08-30T07:42:53;3.23;;;2.13;;
24277;SDS011;12394;42.692;23.314;2023-08-30T07:45:19;4.37;;;2.97;;
24277;SDS011;12394;42.692;23.314;2023-08-30T07:47:44;3.23;;;2.83;;
24277;SDS011;12394;42.692;23.314;2023-08-30T07:50:10;2.87;;;2.20;;
24277;SDS011;12394;42.692;23.314;2023-08-30T07:52:35;6.93;;;4.50;;
24277;SDS011;12394;42.692;23.314;2023-08-30T07:55:00;5.53;;;3.73;;
24277;SDS011;12394;42.692;23.314;2023-08-30T07:57:26;3.17;;;2.37;;
24277;SDS011;12394;42.692;23.314;2023-08-30T07:59:52;2.80;;;2.23;;
24277;SDS011;12394;42.692;23.314;2023-08-30T08:02:17;4.90;;;2.87;;
24277;SDS011;12394;42.692;23.314;2023-08-30T08:04:43;2.90;;;2.43;;
24277;SDS011;12394;42.692;23.314;2023-08-30T08:07:08;5.87;;;2.20;;
24277;SDS011;12394;42.692;23.314;2023-08-30T08:09:34;4.07;;;3.57;;
24277;SDS011;12394;42.692;23.314;2023-08-30T08:11:59;5.27;;;2.90;;
24277;SDS011;12394;42.692;23.314;2023-08-30T08:14:25;6.10;;;3.47;;
24277;SDS011;12394;42.692;23.314;2023-08-30T08:16:50;9.70;;;6.17;;
24277;SDS011;12394;42.692;23.314;2023-08-30T08:19:16;7.10;;;3.37;;
24277;SDS011;12394;42.692;23.314;2023-08-30T08:21:41;5.23;;;2.80;;
24277;SDS011;12394;42.692;23.314;2023-08-30T08:24:07;3.87;;;2.80;;
24277;SDS011;12394;42.692;23.314;2023-08-30T08:26:33;4.70;;;2.77;;
24277;SDS011;12394;42.692;23.314;2023-08-30T08:28:58;4.18;;;2.97;;
24277;SDS011;12394;42.692;23.314;2023-08-30T08:31:24;7.05;;;4.25;;
24277;SDS011;12394;42.692;23.314;2023-08-30T08:33:50;8.55;;;4.53;;
24277;SDS011;12394;42.692;23.314;2023-08-30T08:36:18;3.08;;;2.20;;
24277;SDS011;12394;42.692;23.314;2023-08-30T08:38:44;3.75;;;2.67;;
24277;SDS011;12394;42.692;23.314;2023-08-30T08:41:10;3.97;;;3.20;;
24277;SDS011;12394;42.692;23.314;2023-08-30T08:43:39;7.53;;;4.13;;
24277;SDS011;12394;42.692;23.314;2023-08-30T08:46:07;5.35;;;3.78;;
24277;SDS011;12394;42.692;23.314;2023-08-30T08:48:37;4.85;;;2.50;;
24277;SDS011;12394;42.692;23.314;2023-08-30T08:51:05;3.85;;;2.53;;
24277;SDS011;12394;42.692;23.314;2023-08-30T08:53:31;3.50;;;2.35;;
24277;SDS011;12394;42.692;23.314;2023-08-30T08:55:58;3.75;;;1.83;;
24277;SDS011;12394;42.692;23.314;2023-08-30T08:58:23;3.25;;;2.28;;
24277;SDS011;12394;42.692;23.314;2023-08-30T09:00:49;4.28;;;2.75;;
24277;SDS011;12394;42.692;23.314;2023-08-30T09:03:15;7.90;;;2.70;;
24277;SDS011;12394;42.692;23.314;2023-08-30T09:05:42;6.82;;;3.03;;
24277;SDS011;12394;42.692;23.314;2023-08-30T09:08:09;3.72;;;2.22;;
24277;SDS011;12394;42.692;23.314;2023-08-30T09:10:35;3.85;;;2.80;;
24277;SDS011;12394;42.692;23.314;2023-08-30T09:13:01;3.20;;;1.80;;
24277;SDS011;12394;42.692;23.314;2023-08-30T09:15:33;4.22;;;2.70;;
24277;SDS011;12394;42.692;23.314;2023-08-30T09:17:59;3.25;;;2.20;;
24277;SDS011;12394;42.692;23.314;2023-08-30T09:20:25;3.67;;;2.30;;
24277;SDS011;12394;42.692;23.314;2023-08-30T09:22:51;3.67;;;1.92;;
24277;SDS011;12394;42.692;23.314;2023-08-30T09:25:23;3.33;;;2.15;;
24277;SDS011;12394;42.692;23.314;2023-08-30T09:27:50;2.38;;;2.17;;
24277;SDS011;12394;42.692;23.314;2023-08-30T09:30:22;2.50;;;2.08;;
24277;SDS011;12394;42.692;23.314;2023-08-30T09:32:48;4.43;;;2.30;;
24277;SDS011;12394;42.692;23.314;2023-08-30T09:35:13;2.40;;;1.85;;
24277;SDS011;12394;42.692;23.314;2023-08-30T09:37:38;2.85;;;2.13;;
24277;SDS011;12394;42.692;23.314;2023-08-30T09:40:04;2.10;;;1.90;;
24277;SDS011;12394;42.692;23.314;2023-08-30T09:42:31;3.05;;;2.60;;
24277;SDS011;12394;42.692;23.314;2023-08-30T09:44:57;5.10;;;2.10;;
24277;SDS011;12394;42.692;23.314;2023-08-30T09:47:25;6.00;;;2.90;;
24277;SDS011;12394;42.692;23.314;2023-08-30T09:49:52;2.97;;;2.65;;
24277;SDS011;12394;42.692;23.314;2023-08-30T09:52:20;4.43;;;2.75;;
24277;SDS011;12394;42.692;23.314;2023-08-30T09:54:49;3.83;;;2.45;;
24277;SDS011;12394;42.692;23.314;2023-08-30T09:57:16;3.08;;;2.60;;
24277;SDS011;12394;42.692;23.314;2023-08-30T09:59:42;4.32;;;2.47;;
24277;SDS011;12394;42.692;23.314;2023-08-30T10:02:08;3.47;;;2.80;;
24277;SDS011;12394;42.692;23.314;2023-08-30T10:04:35;3.28;;;2.50;;
24277;SDS011;12394;42.692;23.314;2023-08-30T10:07:04;3.17;;;2.50;;
24277;SDS011;12394;42.692;23.314;2023-08-30T10:09:29;2.70;;;2.50;;
24277;SDS011;12394;42.692;23.314;2023-08-30T10:11:56;7.13;;;4.22;;
24277;SDS011;12394;42.692;23.314;2023-08-30T10:14:23;9.23;;;3.10;;
24277;SDS011;12394;42.692;23.314;2023-08-30T10:16:49;3.50;;;2.88;;
24277;SDS011;12394;42.692;23.314;2023-08-30T10:19:28;3.10;;;2.78;;
24277;SDS011;12394;42.692;23.314;2023-08-30T10:22:00;3.63;;;2.72;;
24277;SDS011;12394;42.692;23.314;2023-08-30T10:24:31;6.28;;;2.78;;
24277;SDS011;12394;42.692;23.314;2023-08-30T10:27:00;5.40;;;3.13;;
24277;SDS011;12394;42.692;23.314;2023-08-30T10:29:29;3.17;;;2.38;;
24277;SDS011;12394;42.692;23.314;2023-08-30T10:32:04;3.42;;;2.65;;
24277;SDS011;12394;42.692;23.314;2023-08-30T10:34:34;3.17;;;2.75;;
24277;SDS011;12394;42.692;23.314;2023-08-30T10:37:01;4.35;;;3.67;;
24277;SDS011;12394;42.692;23.314;2023-08-30T10:39:35;3.03;;;2.75;;
24277;SDS011;12394;42.692;23.314;2023-08-30T10:42:07;3.58;;;2.70;;
24277;SDS011;12394;42.692;23.314;2023-08-30T10:44:52;6.33;;;3.00;;
24277;SDS011;12394;42.692;23.314;2023-08-30T10:47:32;4.13;;;3.20;;
24277;SDS011;12394;42.692;23.314;2023-08-30T10:50:09;5.17;;;3.70;;
24277;SDS011;12394;42.692;23.314;2023-08-30T10:52:36;3.87;;;3.10;;
24277;SDS011;12394;42.692;23.314;2023-08-30T10:55:09;3.33;;;2.50;;
24277;SDS011;12394;42.692;23.314;2023-08-30T10:57:36;4.00;;;3.30;;
24277;SDS011;12394;42.692;23.314;2023-08-30T11:02:43;4.93;;;3.00;;
24277;SDS011;12394;42.692;23.314;2023-08-30T11:05:09;4.30;;;2.93;;
24277;SDS011;12394;42.692;23.314;2023-08-30T11:07:35;5.83;;;2.80;;
24277;SDS011;12394;42.692;23.314;2023-08-30T11:10:01;5.43;;;3.20;;
24277;SDS011;12394;42.692;23.314;2023-08-30T11:12:29;3.93;;;2.60;;
24277;SDS011;12394;42.692;23.314;2023-08-30T11:14:55;3.17;;;2.87;;
24277;SDS011;12394;42.692;23.314;2023-08-30T11:17:21;4.00;;;3.17;;
24277;SDS011;12394;42.692;23.314;2023-08-30T11:19:50;3.60;;;2.70;;
24277;SDS011;12394;42.692;23.314;2023-08-30T11:22:16;4.83;;;2.70;;
24277;SDS011;12394;42.692;23.314;2023-08-30T11:24:42;3.70;;;3.00;;
24277;SDS011;12394;42.692;23.314;2023-08-30T11:27:08;5.00;;;3.33;;
24277;SDS011;12394;42.692;23.314;2023-08-30T11:29:34;5.17;;;3.20;;
24277;SDS011;12394;42.692;23.314;2023-08-30T11:32:00;3.70;;;2.87;;
24277;SDS011;12394;42.692;23.314;2023-08-30T11:34:25;4.00;;;2.90;;
24277;SDS011;12394;42.692;23.314;2023-08-30T11:36:51;3.67;;;3.30;;
24277;SDS011;12394;42.692;23.314;2023-08-30T11:39:17;3.17;;;2.77;;
24277;SDS011;12394;42.692;23.314;2023-08-30T11:41:43;3.83;;;2.97;;
24277;SDS011;12394;42.692;23.314;2023-08-30T11:44:10;3.50;;;2.90;;
24277;SDS011;12394;42.692;23.314;2023-08-30T11:46:35;4.40;;;2.90;;
24277;SDS011;12394;42.692;23.314;2023-08-30T11:49:01;3.43;;;2.93;;
24277;SDS011;12394;42.692;23.314;2023-08-30T11:51:27;4.43;;;3.20;;
24277;SDS011;12394;42.692;23.314;2023-08-30T11:53:54;3.47;;;2.50;;
24277;SDS011;12394;42.692;23.314;2023-08-30T11:56:21;3.50;;;2.77;;
24277;SDS011;12394;42.692;23.314;2023-08-30T11:58:47;5.47;;;3.10;;
24277;SDS011;12394;42.692;23.314;2023-08-30T12:01:13;3.93;;;2.87;;
24277;SDS011;12394;42.692;23.314;2023-08-30T12:03:39;4.13;;;3.23;;
24277;SDS011;12394;42.692;23.314;2023-08-30T12:06:09;6.10;;;3.77;;
24277;SDS011;12394;42.692;23.314;2023-08-30T12:08:37;4.37;;;2.97;;
24277;SDS011;12394;42.692;23.314;2023-08-30T12:11:02;3.80;;;2.47;;
24277;SDS011;12394;42.692;23.314;2023-08-30T12:13:34;5.10;;;3.60;;
24277;SDS011;12394;42.692;23.314;2023-08-30T12:16:00;4.33;;;3.13;;
24277;SDS011;12394;42.692;23.314;2023-08-30T12:18:27;8.00;;;3.73;;
24277;SDS011;12394;42.692;23.314;2023-08-30T12:21:01;3.97;;;3.00;;
24277;SDS011;12394;42.692;23.314;2023-08-30T12:23:31;6.47;;;3.37;;
24277;SDS011;12394;42.692;23.314;2023-08-30T12:26:01;4.47;;;2.80;;
24277;SDS011;12394;42.692;23.314;2023-08-30T12:28:30;4.53;;;3.10;;
24277;SDS011;12394;42.692;23.314;2023-08-30T12:30:58;3.43;;;2.70;;
24277;SDS011;12394;42.692;23.314;2023-08-30T12:33:24;5.63;;;3.63;;
24277;SDS011;12394;42.692;23.314;2023-08-30T12:35:50;4.43;;;2.70;;
24277;SDS011;12394;42.692;23.314;2023-08-30T12:38:16;4.60;;;3.37;;
24277;SDS011;12394;42.692;23.314;2023-08-30T12:40:48;4.07;;;3.07;;
24277;SDS011;12394;42.692;23.314;2023-08-30T12:43:15;4.17;;;3.47;;
24277;SDS011;12394;42.692;23.314;2023-08-30T12:45:41;4.53;;;3.10;;
24277;SDS011;12394;42.692;23.314;2023-08-30T12:48:08;3.50;;;2.93;;
24277;SDS011;12394;42.692;23.314;2023-08-30T12:50:35;4.37;;;3.13;;
24277;SDS011;12394;42.692;23.314;2023-08-30T12:53:04;5.07;;;3.33;;
24277;SDS011;12394;42.692;23.314;2023-08-30T12:55:30;3.13;;;2.57;;
24277;SDS011;12394;42.692;23.314;2023-08-30T12:57:56;4.53;;;3.17;;
24277;SDS011;12394;42.692;23.314;2023-08-30T13:00:22;3.43;;;2.70;;
24277;SDS011;12394;42.692;23.314;2023-08-30T13:02:47;8.60;;;2.93;;
24277;SDS011;12394;42.692;23.314;2023-08-30T13:05:13;3.60;;;2.83;;
24277;SDS011;12394;42.692;23.314;2023-08-30T13:07:40;4.77;;;2.87;;
24277;SDS011;12394;42.692;23.314;2023-08-30T13:10:06;3.43;;;2.47;;
24277;SDS011;12394;42.692;23.314;2023-08-30T13:12:32;3.77;;;2.80;;
24277;SDS011;12394;42.692;23.314;2023-08-30T13:14:57;3.33;;;2.50;;
24277;SDS011;12394;42.692;23.314;2023-08-30T13:17:22;3.60;;;2.70;;
24277;SDS011;12394;42.692;23.314;2023-08-30T13:19:48;4.87;;;2.80;;
24277;SDS011;12394;42.692;23.314;2023-08-30T13:22:14;4.60;;;2.67;;
24277;SDS011;12394;42.692;23.314;2023-08-30T13:24:40;3.43;;;2.73;;
24277;SDS011;12394;42.692;23.314;2023-08-30T13:27:05;3.27;;;2.83;;
24277;SDS011;12394;42.692;23.314;2023-08-30T13:29:31;4.30;;;2.40;;
24277;SDS011;12394;42.692;23.314;2023-08-30T13:31:56;3.63;;;2.73;;
24277;SDS011;12394;42.692;23.314;2023-08-30T13:34:22;3.03;;;2.50;;
24277;SDS011;12394;42.692;23.314;2023-08-30T13:36:47;3.77;;;2.80;;
24277;SDS011;12394;42.692;23.314;2023-08-30T13:39:13;3.70;;;2.63;;
24277;SDS011;12394;42.692;23.314;2023-08-30T13:41:39;7.70;;;2.70;;
24277;SDS011;12394;42.692;23.314;2023-08-30T13:44:05;5.57;;;2.77;;
24277;SDS011;12394;42.692;23.314;2023-08-30T13:46:31;5.43;;;2.70;;
24277;SDS011;12394;42.692;23.314;2023-08-30T13:48:56;3.63;;;2.20;;
24277;SDS011;12394;42.692;23.314;2023-08-30T13:51:23;4.13;;;2.60;;
24277;SDS011;12394;42.692;23.314;2023-08-30T13:53:49;4.23;;;2.17;;
24277;SDS011;12394;42.692;23.314;2023-08-30T13:56:15;3.63;;;2.90;;
24277;SDS011;12394;42.692;23.314;2023-08-30T13:58:41;3.20;;;2.50;;
24277;SDS011;12394;42.692;23.314;2023-08-30T14:01:07;4.07;;;2.57;;
24277;SDS011;12394;42.692;23.314;2023-08-30T14:03:33;3.83;;;3.00;;
24277;SDS011;12394;42.692;23.314;2023-08-30T14:05:58;5.77;;;2.77;;
24277;SDS011;12394;42.692;23.314;2023-08-30T14:08:24;3.83;;;2.60;;
24277;SDS011;12394;42.692;23.314;2023-08-30T14:10:49;3.87;;;2.70;;
24277;SDS011;12394;42.692;23.314;2023-08-30T14:13:14;3.73;;;2.50;;
24277;SDS011;12394;42.692;23.314;2023-08-30T14:15:40;4.97;;;2.33;;
24277;SDS011;12394;42.692;23.314;2023-08-30T14:18:07;5.60;;;3.17;;
24277;SDS011;12394;42.692;23.314;2023-08-30T14:20:33;5.37;;;2.87;;
24277;SDS011;12394;42.692;23.314;2023-08-30T14:22:58;10.07;;;2.93;;
24277;SDS011;12394;42.692;23.314;2023-08-30T14:25:24;4.70;;;2.60;;
24277;SDS011;12394;42.692;23.314;2023-08-30T14:27:49;4.83;;;2.43;;
24277;SDS011;12394;42.692;23.314;2023-08-30T14:30:15;3.97;;;2.00;;
24277;SDS011;12394;42.692;23.314;2023-08-30T14:32:41;3.93;;;2.47;;
24277;SDS011;12394;42.692;23.314;2023-08-30T14:35:07;2.90;;;2.43;;
24277;SDS011;12394;42.692;23.314;2023-08-30T14:37:33;4.37;;;2.23;;
24277;SDS011;12394;42.692;23.314;2023-08-30T14:40:05;3.03;;;2.10;;
24277;SDS011;12394;42.692;23.314;2023-08-30T14:42:31;3.50;;;2.47;;